createdAt,value
2022-09-15T00:01:27.824Z,98486.03
2022-09-15T00:03:54.947Z,98487.53
2022-09-15T00:06:22.052Z,98482.94
2022-09-15T00:08:49.123Z,98485.72
2022-09-15T00:11:20.269Z,98482.47
2022-09-15T00:13:47.584Z,98480.91
2022-09-15T00:16:15.822Z,98483.69
2022-09-15T00:18:44.008Z,98480.91
2022-09-15T00:21:16.704Z,98487.25
2022-09-15T00:23:44.338Z,98486.16
2022-09-15T00:26:13.773Z,98481.09
2022-09-15T00:28:41.170Z,98480.31
2022-09-15T00:31:11.629Z,98478.75
2022-09-15T00:33:38.902Z,98485.88
2022-09-15T00:36:08.505Z,98484.31
2022-09-15T00:38:36.734Z,98482.31
2022-09-15T00:41:05.098Z,98485.09
2022-09-15T00:43:54.366Z,98482.00
2022-09-15T00:46:25.850Z,98484.78
2022-09-15T00:52:01.770Z,98475.06
2022-09-15T00:54:36.088Z,98476.00
2022-09-15T00:57:07.547Z,98472.44
2022-09-15T00:59:37.556Z,98469.84
2022-09-15T01:02:16.003Z,98468.91
2022-09-15T01:04:43.417Z,98465.22
2022-09-15T01:07:15.891Z,98466.91
2022-09-15T01:09:51.372Z,98467.53
2022-09-15T01:12:19.249Z,98470.16
2022-09-15T01:14:46.329Z,98478.22
2022-09-15T01:26:34.052Z,98468.28
2022-09-15T01:34:20.117Z,98473.59
2022-09-15T01:36:57.711Z,98482.22
2022-09-15T01:39:26.654Z,98474.19
2022-09-15T01:42:05.516Z,98476.19
2022-09-15T01:44:42.640Z,98473.88
2022-09-15T01:47:13.414Z,98471.53
2022-09-15T01:49:50.706Z,98467.25
2022-09-15T01:52:21.232Z,98468.03
2022-09-15T01:54:52.395Z,98472.81
2022-09-15T01:57:22.968Z,98465.69
2022-09-15T01:59:51.618Z,98470.47
2022-09-15T02:05:16.848Z,98472.66
2022-09-15T02:10:45.150Z,98468.28
2022-09-15T02:13:24.383Z,98457.94
2022-09-15T02:15:57.189Z,98456.41
2022-09-15T02:18:37.438Z,98464.72
2022-09-15T02:21:12.955Z,98464.72
2022-09-15T02:23:45.004Z,98468.47
2022-09-15T02:26:17.912Z,98470.00
2022-09-15T02:28:48.084Z,98470.78
2022-09-15T02:31:18.236Z,98465.22
2022-09-15T02:33:49.928Z,98471.22
2022-09-15T02:36:20.114Z,98468.13
2022-09-15T02:38:53.518Z,98470.91
2022-09-15T02:41:20.913Z,98465.34
2022-09-15T02:43:49.516Z,98472.47
2022-09-15T02:46:20.406Z,98475.56
2022-09-15T02:48:47.859Z,98464.44
2022-09-15T02:51:16.617Z,98474.31
2022-09-15T02:53:44.803Z,98475.84
2022-09-15T02:56:12.267Z,98473.44
2022-09-15T02:58:39.322Z,98466.28
2022-09-15T03:01:07.673Z,98469.88
2022-09-15T03:03:35.924Z,98471.06
2022-09-15T03:06:21.771Z,98471.53
2022-09-15T03:08:51.547Z,98479.56
2022-09-15T03:11:21.147Z,98478.34
2022-09-15T03:13:52.708Z,98475.06
2022-09-15T03:16:20.293Z,98482.53
2022-09-15T03:18:47.668Z,98476.97
2022-09-15T03:21:16.451Z,98485.75
2022-09-15T03:23:43.610Z,98482.66
2022-09-15T03:26:11.753Z,98483.59
2022-09-15T03:28:39.498Z,98491.63
2022-09-15T03:31:08.409Z,98483.28
2022-09-15T03:33:36.549Z,98497.94
2022-09-15T03:36:03.776Z,98487.31
2022-09-15T03:38:31.210Z,98496.41
2022-09-15T03:41:08.182Z,98493.03
2022-09-15T03:43:35.970Z,98497.31
2022-09-15T03:46:06.401Z,98488.97
2022-09-15T03:48:35.753Z,98491.75
2022-09-15T03:51:04.600Z,98491.75
2022-09-15T03:53:34.514Z,98488.22
2022-09-15T03:56:11.436Z,98492.53
2022-09-15T03:58:38.663Z,98491.75
2022-09-15T04:01:05.860Z,98482.34
2022-09-15T04:03:34.495Z,98484.81
2022-09-15T04:06:03.961Z,98479.25
2022-09-15T04:08:31.186Z,98481.91
2022-09-15T04:10:58.587Z,98480.66
2022-09-15T04:13:28.601Z,98485.28
2022-09-15T04:16:07.138Z,98481.91
2022-09-15T04:18:35.145Z,98484.97
2022-09-15T04:21:05.825Z,98485.16
2022-09-15T04:23:33.548Z,98488.22
2022-09-15T04:26:05.202Z,98484.81
2022-09-15T04:28:33.933Z,98488.72
2022-09-15T04:31:10.162Z,98481.91
2022-09-15T04:33:39.122Z,98481.75
2022-09-15T04:36:09.494Z,98486.38
2022-09-15T04:38:36.934Z,98490.25
2022-09-15T04:41:05.063Z,98485.75
2022-09-15T04:43:33.024Z,98484.50
2022-09-15T04:46:00.169Z,98487.91
2022-09-15T04:48:28.120Z,98485.91
2022-09-15T04:50:55.251Z,98489.44
2022-09-15T04:53:22.354Z,98491.47
2022-09-15T04:55:49.417Z,98496.84
2022-09-15T04:58:16.982Z,98493.63
2022-09-15T05:00:44.131Z,98496.69
2022-09-15T05:03:12.155Z,98501.19
2022-09-15T05:05:40.349Z,98487.28
2022-09-15T05:08:08.375Z,98495.63
2022-09-15T05:10:35.722Z,98488.06
2022-09-15T05:13:02.793Z,98488.81
2022-09-15T05:15:30.017Z,98484.31
2022-09-15T05:17:57.125Z,98482.16
2022-09-15T05:20:24.379Z,98486.63
2022-09-15T05:22:51.505Z,98493.09
2022-09-15T05:25:18.551Z,98479.81
2022-09-15T05:27:45.664Z,98493.53
2022-09-15T05:32:59.986Z,98490.41
2022-09-15T05:35:27.112Z,98491.19
2022-09-15T05:37:54.192Z,98489.63
2022-09-15T05:40:22.403Z,98482.06
2022-09-15T05:42:49.554Z,98494.28
2022-09-15T05:45:16.910Z,98485.44
2022-09-15T05:47:43.982Z,98489.50
2022-09-15T05:50:11.655Z,98489.19
2022-09-15T05:52:38.706Z,98488.88
2022-09-15T05:55:05.893Z,98491.97
2022-09-15T05:57:33.385Z,98499.25
2022-09-15T06:00:00.590Z,98501.25
2022-09-15T06:02:27.769Z,98493.69
2022-09-15T06:04:54.985Z,98493.69
2022-09-15T06:07:22.038Z,98502.50
2022-09-15T06:09:49.075Z,98502.50
2022-09-15T06:12:18.179Z,98504.19
2022-09-15T06:14:46.193Z,98499.88
2022-09-15T06:17:13.269Z,98506.69
2022-09-15T06:19:40.556Z,98510.69
2022-09-15T06:22:08.057Z,98515.63
2022-09-15T06:24:35.122Z,98508.06
2022-09-15T06:27:02.271Z,98506.34
2022-09-15T06:29:29.325Z,98506.34
2022-09-15T06:31:57.402Z,98496.94
2022-09-15T06:34:24.498Z,98503.72
2022-09-15T06:36:51.578Z,98510.06
2022-09-15T06:39:18.656Z,98517.97
2022-09-15T06:42:01.679Z,98517.47
2022-09-15T06:44:29.629Z,98505.09
2022-09-15T06:46:56.752Z,98508.97
2022-09-15T06:49:23.811Z,98504.16
2022-09-15T06:51:50.921Z,98514.06
2022-09-15T06:54:18.290Z,98512.81
2022-09-15T06:56:45.488Z,98517.75
2022-09-15T06:59:13.444Z,98522.38
2022-09-15T07:01:41.274Z,98514.81
2022-09-15T07:04:10.078Z,98516.63
2022-09-15T07:06:39.364Z,98520.06
2022-09-15T07:09:07.135Z,98526.69
2022-09-15T07:11:34.333Z,98529.47
2022-09-15T07:14:01.422Z,98529.59
2022-09-15T07:16:28.514Z,98520.78
2022-09-15T07:18:57.480Z,98533.75
2022-09-15T07:21:24.936Z,98530.03
2022-09-15T07:23:52.317Z,98529.25
2022-09-15T07:26:22.968Z,98533.00
2022-09-15T07:28:57.117Z,98527.59
2022-09-15T07:31:27.232Z,98534.41
2022-09-15T07:33:54.770Z,98530.38
2022-09-15T07:36:22.178Z,98527.41
2022-09-15T07:38:49.990Z,98532.53
2022-09-15T07:41:20.200Z,98533.13
2022-09-15T07:43:52.735Z,98533.41
2022-09-15T07:46:21.200Z,98528.94
2022-09-15T07:48:50.535Z,98531.53
2022-09-15T07:51:18.816Z,98534.91
2022-09-15T07:53:47.627Z,98524.56
2022-09-15T07:56:18.182Z,98527.94
2022-09-15T07:58:46.359Z,98529.31
2022-09-15T08:01:15.283Z,98521.25
2022-09-15T08:03:44.445Z,98520.63
2022-09-15T08:06:12.211Z,98526.78
2022-09-15T08:08:40.725Z,98528.78
2022-09-15T08:11:12.238Z,98523.41
2022-09-15T08:13:42.486Z,98527.13
2022-09-15T08:16:12.228Z,98538.56
2022-09-15T08:18:42.194Z,98531.25
2022-09-15T08:21:14.377Z,98535.91
2022-09-15T08:23:41.665Z,98543.13
2022-09-15T08:26:13.834Z,98531.34
2022-09-15T08:28:42.604Z,98532.88
2022-09-15T08:31:11.834Z,98536.25
2022-09-15T08:33:44.599Z,98542.59
2022-09-15T08:36:13.573Z,98535.13
2022-09-15T08:38:42.225Z,98532.75
2022-09-15T08:46:43.062Z,98536.63
2022-09-15T08:49:35.551Z,98533.66
2022-09-15T08:52:16.681Z,98532.81
2022-09-15T08:54:44.034Z,98528.41
2022-09-15T08:57:17.165Z,98529.94
2022-09-15T08:59:44.862Z,98531.97
2022-09-15T09:05:11.420Z,98542.59
2022-09-15T09:11:02.412Z,98540.38
2022-09-15T09:19:15.398Z,98552.66
2022-09-15T09:21:47.890Z,98554.31
2022-09-15T09:24:18.990Z,98543.94
2022-09-15T09:26:54.498Z,98555.75
2022-09-15T09:29:33.033Z,98555.25
2022-09-15T09:32:01.567Z,98553.75
2022-09-15T09:37:13.664Z,98556.53
2022-09-15T09:39:41.285Z,98557.78
2022-09-15T09:42:15.673Z,98562.25
2022-09-15T09:44:43.054Z,98567.84
2022-09-15T09:47:10.424Z,98559.97
2022-09-15T09:49:43.459Z,98565.81
2022-09-15T09:52:10.829Z,98564.59
2022-09-15T09:54:38.241Z,98570.16
2022-09-15T09:57:27.246Z,98573.13
2022-09-15T09:59:54.712Z,98582.94
2022-09-15T10:02:27.546Z,98583.88
2022-09-15T10:07:49.232Z,98577.69
2022-09-15T10:10:28.766Z,98581.75
2022-09-15T10:12:57.100Z,98592.13
2022-09-15T10:15:30.574Z,98591.34
2022-09-15T10:17:58.302Z,98595.97
2022-09-15T10:20:32.903Z,98597.69
2022-09-15T10:31:49.403Z,98599.66
2022-09-15T10:34:32.836Z,98607.25
2022-09-15T10:37:12.045Z,98590.97
2022-09-15T10:42:53.147Z,98611.00
2022-09-15T10:45:27.235Z,98606.34
2022-09-15T10:48:23.766Z,98607.13
2022-09-15T10:56:30.954Z,98611.22
2022-09-15T10:59:28.332Z,98607.13
2022-09-15T11:12:56.956Z,98619.09
2022-09-15T11:16:03.807Z,98620.03
2022-09-15T11:26:49.584Z,98615.84
2022-09-15T11:34:46.674Z,98619.16
2022-09-15T11:37:21.746Z,98626.41
2022-09-15T11:40:03.993Z,98628.88
2022-09-15T11:42:38.375Z,98635.91
2022-09-15T11:45:14.920Z,98627.84
2022-09-15T11:47:48.007Z,98624.38
2022-09-15T11:50:35.224Z,98627.75
2022-09-15T11:53:28.539Z,98622.75
2022-09-15T11:56:06.120Z,98620.06
2022-09-15T12:06:49.649Z,98616.13
2022-09-15T12:09:18.804Z,98625.06
2022-09-15T12:11:48.957Z,98616.78
2022-09-15T12:14:27.264Z,98617.56
2022-09-15T12:16:55.029Z,98622.44
2022-09-15T12:19:54.076Z,98624.28
2022-09-15T12:22:29.756Z,98621.09
2022-09-15T12:27:36.919Z,98627.66
2022-09-15T12:30:06.296Z,98627.28
2022-09-15T12:32:35.580Z,98625.66
2022-09-15T12:40:39.566Z,98622.56
2022-09-15T12:46:01.263Z,98620.72
2022-09-15T12:48:35.065Z,98623.44
2022-09-15T12:51:10.695Z,98630.19
2022-09-15T12:54:01.122Z,98627.41
2022-09-15T12:56:31.483Z,98623.63
2022-09-15T12:59:11.537Z,98627.31
2022-09-15T13:01:49.165Z,98632.59
2022-09-15T13:04:44.230Z,98629.53
2022-09-15T13:10:20.328Z,98626.91
2022-09-15T13:12:55.523Z,98630.47
2022-09-15T13:15:25.562Z,98632.69
2022-09-15T13:17:54.813Z,98631.34
2022-09-15T13:20:33.056Z,98645.03
2022-09-15T13:23:02.103Z,98646.75
2022-09-15T13:25:31.023Z,98649.28
2022-09-15T13:28:02.153Z,98641.84
2022-09-15T13:47:07.012Z,98675.88
2022-09-15T14:03:51.051Z,98691.94
2022-09-15T14:06:30.525Z,98691.16
2022-09-15T14:09:04.796Z,98685.00
2022-09-15T14:11:35.026Z,98695.56
2022-09-15T14:14:03.241Z,98687.97
2022-09-15T14:16:34.800Z,98691.25
2022-09-15T14:19:21.295Z,98686.91
2022-09-15T14:21:49.422Z,98689.41
2022-09-15T14:24:25.657Z,98699.03
2022-09-15T14:26:52.956Z,98700.44
2022-09-15T14:29:24.627Z,98701.09
2022-09-15T14:31:52.143Z,98707.16
2022-09-15T14:34:23.612Z,98707.66
2022-09-15T14:37:15.108Z,98700.03
2022-09-15T14:39:50.255Z,98708.56
2022-09-15T14:42:22.953Z,98712.59
2022-09-15T14:47:40.358Z,98708.94
2022-09-15T14:50:14.922Z,98715.59
2022-09-15T14:52:47.380Z,98720.25
2022-09-15T14:55:28.291Z,98712.78
2022-09-15T14:58:08.174Z,98720.13
2022-09-15T15:00:54.611Z,98720.28
2022-09-15T15:03:34.261Z,98719.19
2022-09-15T15:09:04.090Z,98712.72
2022-09-15T15:11:33.517Z,98713.22
2022-09-15T15:14:01.186Z,98715.69
2022-09-15T15:16:31.155Z,98713.53
2022-09-15T15:18:58.507Z,98720.06
2022-09-15T15:21:45.590Z,98714.69
2022-09-15T15:26:51.361Z,98712.53
2022-09-15T15:29:44.070Z,98717.78
2022-09-15T15:37:31.168Z,98715.69
2022-09-15T15:40:02.077Z,98709.50
2022-09-15T15:42:30.250Z,98712.19
2022-09-15T15:45:05.399Z,98725.22
2022-09-15T15:47:36.780Z,98718.53
2022-09-15T15:50:25.568Z,98719.06
2022-09-15T15:52:53.587Z,98718.59
2022-09-15T15:57:58.690Z,98716.94
2022-09-15T16:00:33.040Z,98721.13
2022-09-15T16:03:00.189Z,98710.59
2022-09-15T16:05:29.525Z,98716.03
2022-09-15T16:07:59.813Z,98712.00
2022-09-15T16:10:33.242Z,98712.03
2022-09-15T16:13:00.297Z,98724.38
2022-09-15T16:15:27.447Z,98724.38
2022-09-15T16:17:54.553Z,98726.84
2022-09-15T16:20:24.637Z,98722.97
2022-09-15T16:22:52.458Z,98717.84
2022-09-15T16:28:00.917Z,98714.25
2022-09-15T16:30:28.803Z,98721.97
2022-09-15T16:32:56.101Z,98725.34
2022-09-15T16:35:46.195Z,98719.28
2022-09-15T16:38:13.335Z,98728.38
2022-09-15T16:40:40.409Z,98733.44
2022-09-15T16:43:12.690Z,98731.38
2022-09-15T16:45:41.018Z,98729.34
2022-09-15T16:48:09.700Z,98728.53
2022-09-15T16:50:39.835Z,98732.81
2022-09-15T16:53:23.917Z,98730.88
2022-09-15T16:55:52.596Z,98724.38
2022-09-15T16:58:20.867Z,98717.53
2022-09-15T17:00:50.181Z,98728.16
2022-09-15T17:03:21.024Z,98730.59
2022-09-15T17:05:50.420Z,98722.84
2022-09-15T17:08:19.616Z,98729.75
2022-09-15T17:10:47.765Z,98735.00
2022-09-15T17:13:17.806Z,98733.56
2022-09-15T17:15:46.554Z,98734.13
2022-09-15T17:18:15.750Z,98734.72
2022-09-15T17:20:44.633Z,98740.84
2022-09-15T17:26:10.955Z,98743.31
2022-09-15T17:28:38.520Z,98738.91
2022-09-15T17:31:12.355Z,98739.41
2022-09-15T17:33:40.176Z,98736.09
2022-09-15T17:36:08.045Z,98735.22
2022-09-15T17:38:35.485Z,98738.69
2022-09-15T17:41:02.944Z,98737.34
2022-09-15T17:43:31.342Z,98736.69
2022-09-15T17:45:59.017Z,98732.47
2022-09-15T17:48:26.345Z,98740.56
2022-09-15T17:50:53.533Z,98743.44
2022-09-15T17:53:23.126Z,98737.91
2022-09-15T17:55:51.114Z,98735.47
2022-09-15T17:58:18.899Z,98743.44
2022-09-15T18:00:47.377Z,98738.00
2022-09-15T18:03:27.781Z,98737.47
2022-09-15T18:05:58.735Z,98731.56
2022-09-15T18:08:27.198Z,98732.81
2022-09-15T18:10:55.216Z,98735.34
2022-09-15T18:13:24.958Z,98735.25
2022-09-15T18:15:52.140Z,98729.25
2022-09-15T18:18:22.118Z,98731.47
2022-09-15T18:20:50.072Z,98728.81
2022-09-15T18:23:20.143Z,98726.91
2022-09-15T18:25:48.066Z,98726.22
2022-09-15T18:28:15.953Z,98728.69
2022-09-15T18:30:45.214Z,98726.78
2022-09-15T18:33:16.191Z,98737.16
2022-09-15T18:35:44.284Z,98735.06
2022-09-15T18:38:13.873Z,98734.13
2022-09-15T18:40:51.098Z,98727.78
2022-09-15T18:43:18.251Z,98736.72
2022-09-15T18:45:45.791Z,98741.47
2022-09-15T18:48:13.480Z,98739.91
2022-09-15T18:50:41.770Z,98727.66
2022-09-15T18:53:09.279Z,98730.00
2022-09-15T18:55:36.537Z,98723.69
2022-09-15T18:58:03.821Z,98728.00
2022-09-15T19:00:32.028Z,98727.66
2022-09-15T19:03:02.084Z,98716.44
2022-09-15T19:05:30.819Z,98730.47
2022-09-15T19:07:58.272Z,98721.94
2022-09-15T19:10:27.118Z,98723.56
2022-09-15T19:12:54.523Z,98718.22
2022-09-15T19:15:25.229Z,98727.84
2022-09-15T19:17:52.423Z,98719.97
2022-09-15T19:20:19.742Z,98725.50
2022-09-15T19:22:47.668Z,98723.25
2022-09-15T19:25:14.949Z,98728.56
2022-09-15T19:27:42.194Z,98720.31
2022-09-15T19:30:10.751Z,98723.88
2022-09-15T19:32:39.444Z,98723.09
2022-09-15T19:35:08.066Z,98724.66
2022-09-15T19:37:38.467Z,98720.31
2022-09-15T19:40:09.292Z,98723.97
2022-09-15T19:42:38.796Z,98720.53
2022-09-15T19:45:08.312Z,98715.09
2022-09-15T19:47:35.756Z,98725.00
2022-09-15T19:50:03.615Z,98711.28
2022-09-15T19:52:30.731Z,98720.44
2022-09-15T19:54:57.855Z,98717.06
2022-09-15T19:57:25.071Z,98724.25
2022-09-15T19:59:52.171Z,98723.88
2022-09-15T20:02:20.201Z,98722.00
2022-09-15T20:04:47.941Z,98718.97
2022-09-15T20:07:15.074Z,98718.28
2022-09-15T20:09:42.455Z,98707.75
2022-09-15T20:12:09.682Z,98716.13
2022-09-15T20:14:36.865Z,98710.34
2022-09-15T20:17:04.391Z,98714.78
2022-09-15T20:19:31.612Z,98718.81
2022-09-15T20:21:58.999Z,98703.91
2022-09-15T20:24:26.217Z,98709.44
2022-09-15T20:26:53.418Z,98711.41
2022-09-15T20:29:20.892Z,98711.06
2022-09-15T20:31:48.850Z,98709.50
2022-09-15T20:34:16.793Z,98724.09
2022-09-15T20:36:44.759Z,98721.34
2022-09-15T20:39:14.927Z,98724.59
2022-09-15T20:41:45.327Z,98719.50
2022-09-15T20:44:12.695Z,98728.19
2022-09-15T20:46:40.183Z,98729.06
2022-09-15T20:49:07.954Z,98728.72
2022-09-15T20:51:35.514Z,98724.75
2022-09-15T20:54:04.469Z,98725.19
2022-09-15T20:56:35.279Z,98731.22
2022-09-15T20:59:04.668Z,98726.13
2022-09-15T21:01:37.041Z,98736.81
2022-09-15T21:04:05.471Z,98730.16
2022-09-15T21:06:32.748Z,98734.13
2022-09-15T21:09:00.603Z,98727.13
2022-09-15T21:11:29.415Z,98735.06
2022-09-15T21:13:57.491Z,98729.53
2022-09-15T21:16:27.713Z,98723.53
2022-09-15T21:18:57.842Z,98723.34
2022-09-15T21:21:27.804Z,98718.81
2022-09-15T21:23:56.995Z,98710.81
2022-09-15T21:26:26.626Z,98709.25
2022-09-15T21:28:55.975Z,98709.66
2022-09-15T21:34:03.468Z,98711.41
2022-09-15T21:36:32.132Z,98705.38
2022-09-15T21:38:59.908Z,98709.25
2022-09-15T21:41:30.192Z,98710.53
2022-09-15T21:43:59.370Z,98705.47
2022-09-15T21:46:29.534Z,98702.25
2022-09-15T21:48:58.623Z,98701.84
2022-09-15T21:51:27.872Z,98701.16
2022-09-15T21:53:57.230Z,98705.47
2022-09-15T21:56:25.880Z,98702.19
2022-09-15T21:58:53.026Z,98702.09
2022-09-15T22:04:03.006Z,98709.13
2022-09-15T22:06:33.537Z,98711.19
2022-09-15T22:09:03.171Z,98715.56
2022-09-15T22:11:31.243Z,98714.44
2022-09-15T22:13:58.374Z,98723.50
2022-09-15T22:16:26.294Z,98719.97
2022-09-15T22:18:54.084Z,98715.56
2022-09-15T22:21:25.502Z,98713.94
2022-09-15T22:23:54.791Z,98707.56
2022-09-15T22:26:26.519Z,98711.53
2022-09-15T22:28:54.487Z,98703.72
2022-09-15T22:31:23.205Z,98708.91
2022-09-15T22:33:51.071Z,98705.47
2022-09-15T22:36:23.051Z,98701.16
2022-09-15T22:38:54.812Z,98696.41
2022-09-15T22:41:26.039Z,98693.56
2022-09-15T22:43:53.174Z,98690.78
2022-09-15T22:46:21.122Z,98696.03
2022-09-15T22:48:48.492Z,98697.50
2022-09-15T22:51:16.206Z,98694.56
2022-09-15T22:53:43.533Z,98700.50
2022-09-15T22:56:15.856Z,98703.44
2022-09-15T22:58:44.458Z,98699.88
2022-09-15T23:01:15.531Z,98697.91
2022-09-15T23:03:51.891Z,98697.47
2022-09-15T23:06:20.336Z,98690.91
2022-09-15T23:08:52.849Z,98701.38
2022-09-15T23:11:20.489Z,98691.63
2022-09-15T23:13:47.611Z,98697.06
2022-09-15T23:16:14.797Z,98699.50
2022-09-15T23:18:42.118Z,98695.53
2022-09-15T23:21:10.879Z,98697.50
2022-09-15T23:23:40.065Z,98699.81
2022-09-15T23:26:10.230Z,98699.06
2022-09-15T23:28:39.305Z,98692.09
2022-09-15T23:34:25.457Z,98687.47
2022-09-15T23:36:52.628Z,98691.78
2022-09-15T23:39:19.795Z,98687.47
2022-09-15T23:41:46.959Z,98689.47
2022-09-15T23:44:14.130Z,98683.56
2022-09-15T23:46:41.796Z,98674.69
2022-09-15T23:49:09.070Z,98677.16
2022-09-15T23:51:36.275Z,98672.09
2022-09-15T23:54:04.943Z,98668.09
2022-09-15T23:56:33.785Z,98681.41
2022-09-15T23:59:01.029Z,98674.47
